createdAt,value
2018-06-28T00:02:04.653Z,5.07
2018-06-28T00:04:39.005Z,6.37
2018-06-28T00:07:13.652Z,4.47
2018-06-28T00:09:48.495Z,4.67
2018-06-28T00:12:23.095Z,4.93
2018-06-28T00:14:58.069Z,7.00
2018-06-28T00:17:32.789Z,4.80
2018-06-28T00:20:07.246Z,5.20
2018-06-28T00:22:41.826Z,4.40
2018-06-28T00:25:16.416Z,5.27
2018-06-28T00:27:51.029Z,5.97
2018-06-28T00:30:25.626Z,5.80
2018-06-28T00:33:00.359Z,5.70
2018-06-28T00:35:34.955Z,4.80
2018-06-28T00:38:09.534Z,4.40
2018-06-28T00:40:44.355Z,5.00
2018-06-28T00:43:19.038Z,4.60
2018-06-28T00:45:53.694Z,6.57
2018-06-28T00:48:28.468Z,4.90
2018-06-28T00:51:03.206Z,6.50
2018-06-28T00:53:38.087Z,4.47
2018-06-28T00:56:12.686Z,5.10
2018-06-28T00:58:47.479Z,5.23
2018-06-28T01:01:21.957Z,5.73
2018-06-28T01:03:56.703Z,4.20
2018-06-28T01:06:31.300Z,4.37
2018-06-28T01:09:09.741Z,4.20
2018-06-28T01:11:44.563Z,5.50
2018-06-28T01:14:19.443Z,4.60
2018-06-28T01:16:53.973Z,4.30
2018-06-28T01:19:28.791Z,4.70
2018-06-28T01:22:03.615Z,4.43
2018-06-28T01:24:38.412Z,4.07
2018-06-28T01:27:13.055Z,3.67
2018-06-28T01:29:48.329Z,4.63
2018-06-28T01:32:23.339Z,3.57
2018-06-28T01:34:58.453Z,5.17
2018-06-28T01:37:33.585Z,4.90
2018-06-28T01:40:07.978Z,3.50
2018-06-28T01:43:00.397Z,4.43
2018-06-28T01:45:35.660Z,4.87
2018-06-28T01:48:10.704Z,3.93
2018-06-28T01:50:45.721Z,3.97
2018-06-28T01:53:20.009Z,5.20
2018-06-28T01:55:55.776Z,7.73
2018-06-28T01:58:30.338Z,4.40
2018-06-28T02:01:05.213Z,5.70
2018-06-28T02:03:39.928Z,5.67
2018-06-28T02:06:14.553Z,4.77
2018-06-28T02:08:49.366Z,3.70
2018-06-28T02:11:24.288Z,5.07
2018-06-28T02:13:58.550Z,4.77
2018-06-28T02:16:33.170Z,4.27
2018-06-28T02:19:07.807Z,5.37
2018-06-28T02:21:42.613Z,4.37
2018-06-28T02:24:17.265Z,3.90
2018-06-28T02:26:52.125Z,4.23
2018-06-28T02:29:26.767Z,4.40
2018-06-28T02:32:01.699Z,4.50
2018-06-28T02:34:36.347Z,5.40
2018-06-28T02:37:10.732Z,4.20
2018-06-28T02:39:45.114Z,4.00
2018-06-28T02:42:19.730Z,4.23
2018-06-28T02:44:54.269Z,4.40
2018-06-28T02:47:29.143Z,4.50
2018-06-28T02:50:03.773Z,5.60
2018-06-28T02:52:38.595Z,3.20
2018-06-28T02:55:13.192Z,5.07
2018-06-28T02:57:47.882Z,3.57
2018-06-28T03:00:22.458Z,4.30
2018-06-28T03:02:57.766Z,4.20
2018-06-28T03:05:31.970Z,3.13
2018-06-28T03:08:06.977Z,3.73
2018-06-28T03:10:41.496Z,3.37
2018-06-28T03:13:15.995Z,4.40
2018-06-28T03:15:50.746Z,3.80
2018-06-28T03:18:25.795Z,5.10
2018-06-28T03:21:00.655Z,7.53
2018-06-28T03:23:35.030Z,4.10
2018-06-28T03:26:09.619Z,3.73
2018-06-28T03:28:44.259Z,3.97
2018-06-28T03:31:19.215Z,4.20
2018-06-28T03:33:53.800Z,4.60
2018-06-28T03:36:28.444Z,3.23
2018-06-28T03:39:05.465Z,3.87
2018-06-28T03:41:40.233Z,5.50
2018-06-28T03:44:14.723Z,4.13
2018-06-28T03:46:49.048Z,4.20
2018-06-28T03:49:24.247Z,6.10
2018-06-28T03:51:59.408Z,4.43
2018-06-28T03:54:34.151Z,4.00
2018-06-28T03:57:08.803Z,4.90
2018-06-28T03:59:43.587Z,4.37
2018-06-28T04:02:17.888Z,6.17
2018-06-28T04:04:52.630Z,4.13
2018-06-28T04:07:27.187Z,4.20
2018-06-28T04:10:02.104Z,4.30
2018-06-28T04:12:36.477Z,4.70
2018-06-28T04:15:11.072Z,4.83
2018-06-28T04:17:45.715Z,5.70
2018-06-28T04:20:20.331Z,5.60
2018-06-28T04:22:55.155Z,5.23
2018-06-28T04:25:30.860Z,3.90
2018-06-28T04:28:05.745Z,4.13
2018-06-28T04:30:40.478Z,5.17
2018-06-28T04:33:15.058Z,5.73
2018-06-28T04:35:49.768Z,6.10
2018-06-28T04:38:24.515Z,7.50
2018-06-28T04:40:59.060Z,5.47
2018-06-28T04:43:33.501Z,7.10
2018-06-28T04:46:08.149Z,7.70
2018-06-28T04:48:46.771Z,6.10
2018-06-28T04:51:21.327Z,5.90
2018-06-28T04:53:55.989Z,7.63
2018-06-28T04:56:31.026Z,6.97
2018-06-28T04:59:05.548Z,6.73
2018-06-28T05:01:40.072Z,6.37
2018-06-28T05:04:14.283Z,7.10
2018-06-28T05:06:48.900Z,7.23
2018-06-28T05:09:23.845Z,7.27
2018-06-28T05:11:58.445Z,7.13
2018-06-28T05:14:32.930Z,6.07
2018-06-28T05:17:07.798Z,8.43
2018-06-28T05:19:42.194Z,9.77
2018-06-28T05:22:16.975Z,10.27
2018-06-28T05:24:51.691Z,9.10
2018-06-28T05:27:26.534Z,9.83
2018-06-28T05:30:01.142Z,8.83
2018-06-28T05:32:35.711Z,8.53
2018-06-28T05:35:10.383Z,8.80
2018-06-28T05:37:45.106Z,9.17
2018-06-28T05:40:19.735Z,7.90
2018-06-28T05:42:54.273Z,8.10
2018-06-28T05:45:28.994Z,8.40
2018-06-28T05:48:03.829Z,9.20
2018-06-28T05:50:38.323Z,10.90
2018-06-28T05:53:12.761Z,7.60
2018-06-28T05:55:47.565Z,11.90
2018-06-28T05:58:22.471Z,8.47
2018-06-28T06:00:56.930Z,8.40
2018-06-28T06:03:31.490Z,9.63
2018-06-28T06:06:06.077Z,10.27
2018-06-28T06:08:40.760Z,7.47
2018-06-28T06:11:15.785Z,8.63
2018-06-28T06:13:51.082Z,8.20
2018-06-28T06:16:25.667Z,6.80
2018-06-28T06:19:00.603Z,8.33
2018-06-28T06:21:34.953Z,8.30
2018-06-28T06:24:09.643Z,10.13
2018-06-28T06:26:44.050Z,9.10
2018-06-28T06:29:18.592Z,8.83
2018-06-28T06:31:53.859Z,9.20
2018-06-28T06:34:29.274Z,8.83
2018-06-28T06:37:04.066Z,11.70
2018-06-28T06:39:38.838Z,9.63
2018-06-28T06:42:13.391Z,12.60
2018-06-28T06:44:47.888Z,9.60
2018-06-28T06:47:22.603Z,8.27
2018-06-28T06:49:57.243Z,16.97
2018-06-28T06:52:32.153Z,9.87
2018-06-28T06:55:06.490Z,9.50
2018-06-28T06:57:41.276Z,8.93
2018-06-28T07:00:15.830Z,7.33
2018-06-28T07:02:50.344Z,8.20
2018-06-28T07:05:25.201Z,10.83
2018-06-28T07:07:59.551Z,11.57
2018-06-28T07:10:34.356Z,8.37
2018-06-28T07:13:08.618Z,11.00
2018-06-28T07:15:43.963Z,9.23
2018-06-28T07:18:18.813Z,9.80
2018-06-28T07:20:53.882Z,14.37
2018-06-28T07:23:28.839Z,15.20
2018-06-28T07:26:03.643Z,16.07
2018-06-28T07:28:37.848Z,12.30
2018-06-28T07:31:12.496Z,12.33
2018-06-28T07:33:47.194Z,17.13
2018-06-28T07:36:23.365Z,12.53
2018-06-28T07:38:57.525Z,11.57
2018-06-28T07:41:32.442Z,12.17
2018-06-28T07:44:06.978Z,13.03
2018-06-28T07:46:41.301Z,12.73
2018-06-28T07:49:16.011Z,13.70
2018-06-28T07:51:50.756Z,11.70
2018-06-28T07:54:25.129Z,14.20
2018-06-28T07:57:00.432Z,14.23
2018-06-28T07:59:34.536Z,13.40
2018-06-28T08:02:09.200Z,13.50
2018-06-28T08:04:43.855Z,13.33
2018-06-28T08:07:18.902Z,14.97
2018-06-28T08:09:53.411Z,15.40
2018-06-28T08:12:28.420Z,15.13
2018-06-28T08:15:02.883Z,18.40
2018-06-28T08:17:37.550Z,16.90
2018-06-28T08:20:13.263Z,15.37
2018-06-28T08:22:48.277Z,19.93
2018-06-28T08:25:22.972Z,12.80
2018-06-28T08:27:57.298Z,13.47
2018-06-28T08:30:31.974Z,12.53
2018-06-28T08:33:06.997Z,11.40
2018-06-28T08:35:41.519Z,12.30
2018-06-28T08:38:16.232Z,11.37
2018-06-28T08:40:50.809Z,17.53
2018-06-28T08:43:25.821Z,14.67
2018-06-28T08:46:00.527Z,15.97
2018-06-28T08:48:34.902Z,19.33
2018-06-28T08:51:09.467Z,22.90
2018-06-28T08:53:44.149Z,16.47
2018-06-28T08:56:18.794Z,14.60
2018-06-28T08:58:53.374Z,12.70
2018-06-28T09:01:28.093Z,12.60
2018-06-28T09:04:02.688Z,16.53
2018-06-28T09:06:37.160Z,14.47
2018-06-28T09:09:12.630Z,15.87
2018-06-28T09:11:47.748Z,16.60
2018-06-28T09:14:22.398Z,15.57
2018-06-28T09:16:57.284Z,20.00
2018-06-28T09:19:31.729Z,19.83
2018-06-28T09:22:06.525Z,13.90
2018-06-28T09:24:41.074Z,16.00
2018-06-28T09:27:15.803Z,17.67
2018-06-28T09:29:50.465Z,16.30
2018-06-28T09:32:25.580Z,20.80
2018-06-28T09:35:00.666Z,16.63
2018-06-28T09:37:35.029Z,18.63
2018-06-28T09:40:09.538Z,18.60
2018-06-28T09:42:44.550Z,15.33
2018-06-28T09:45:19.111Z,18.70
2018-06-28T09:47:53.961Z,17.93
2018-06-28T09:50:28.271Z,14.17
2018-06-28T09:53:03.383Z,14.07
2018-06-28T09:55:38.310Z,16.03
2018-06-28T09:58:13.263Z,16.87
2018-06-28T10:00:47.696Z,17.93
2018-06-28T10:03:22.866Z,17.43
2018-06-28T10:05:57.217Z,16.23
2018-06-28T10:08:31.947Z,18.27
2018-06-28T10:11:06.773Z,16.03
2018-06-28T10:13:41.308Z,15.03
2018-06-28T10:16:15.719Z,16.77
2018-06-28T10:18:50.446Z,14.97
2018-06-28T10:21:25.334Z,13.17
2018-06-28T10:24:00.075Z,14.73
2018-06-28T10:26:34.477Z,17.23
2018-06-28T10:29:09.252Z,16.33
2018-06-28T10:31:44.222Z,13.53
2018-06-28T10:34:18.865Z,16.43
2018-06-28T10:36:53.595Z,17.00
2018-06-28T10:39:27.921Z,18.10
2018-06-28T10:42:02.783Z,16.97
2018-06-28T10:44:37.365Z,15.80
2018-06-28T10:47:11.989Z,17.07
2018-06-28T10:49:46.563Z,13.20
2018-06-28T10:52:21.329Z,15.30
2018-06-28T10:54:55.902Z,13.03
2018-06-28T10:57:30.893Z,15.27
2018-06-28T11:00:05.397Z,14.93
2018-06-28T11:02:40.072Z,13.30
2018-06-28T11:05:14.853Z,14.80
2018-06-28T11:07:50.009Z,15.63
2018-06-28T11:10:24.853Z,19.03
2018-06-28T11:12:59.286Z,14.83
2018-06-28T11:15:33.551Z,14.13
2018-06-28T11:18:08.627Z,16.93
2018-06-28T11:20:43.758Z,18.00
2018-06-28T11:23:18.806Z,17.07
2018-06-28T11:25:53.132Z,18.17
2018-06-28T11:28:27.859Z,15.60
2018-06-28T11:31:02.583Z,15.00
2018-06-28T11:33:37.509Z,15.17
2018-06-28T11:36:12.078Z,18.53
2018-06-28T11:38:46.872Z,16.70
2018-06-28T11:41:21.496Z,18.47
2018-06-28T11:43:56.735Z,21.13
2018-06-28T11:46:31.591Z,15.80
2018-06-28T11:49:06.333Z,16.33
2018-06-28T11:51:41.034Z,16.67
2018-06-28T11:54:15.573Z,24.73
2018-06-28T11:56:50.177Z,17.67
2018-06-28T11:59:24.583Z,19.57
2018-06-28T12:01:59.545Z,20.73
2018-06-28T12:04:33.951Z,17.50
2018-06-28T12:07:08.675Z,18.53
2018-06-28T12:09:43.042Z,19.63
2018-06-28T12:12:17.894Z,19.33
2018-06-28T12:14:52.347Z,18.80
2018-06-28T12:17:27.114Z,23.23
2018-06-28T12:20:01.867Z,16.50
2018-06-28T12:22:36.305Z,16.77
2018-06-28T12:25:11.336Z,17.63
2018-06-28T12:27:45.687Z,21.20
2018-06-28T12:30:20.237Z,20.40
2018-06-28T12:32:55.012Z,22.70
2018-06-28T12:35:29.569Z,20.07
2018-06-28T12:38:04.476Z,18.47
2018-06-28T12:40:39.064Z,22.60
2018-06-28T12:43:14.110Z,27.37
2018-06-28T12:45:48.881Z,21.67
2018-06-28T12:48:24.124Z,24.70
2018-06-28T12:50:58.501Z,23.17
2018-06-28T12:53:33.005Z,19.60
2018-06-28T12:56:26.700Z,20.53
2018-06-28T12:59:03.101Z,23.67
2018-06-28T13:01:38.240Z,18.53
2018-06-28T13:04:13.094Z,27.63
2018-06-28T13:06:47.549Z,28.37
2018-06-28T13:09:22.429Z,21.23
2018-06-28T13:11:57.375Z,19.67
2018-06-28T13:14:31.689Z,24.80
2018-06-28T13:17:06.413Z,24.57
2018-06-28T13:19:40.820Z,20.17
2018-06-28T13:22:15.469Z,28.77
2018-06-28T13:24:50.118Z,26.17
2018-06-28T13:27:24.673Z,24.30
2018-06-28T13:29:59.681Z,26.23
2018-06-28T13:32:34.243Z,24.17
2018-06-28T13:35:09.032Z,23.00
2018-06-28T13:37:43.254Z,24.47
2018-06-28T13:40:18.493Z,26.97
2018-06-28T13:42:53.503Z,22.87
2018-06-28T13:45:28.540Z,20.33
2018-06-28T13:48:02.893Z,33.60
2018-06-28T13:50:37.613Z,19.33
2018-06-28T13:53:12.353Z,21.57
2018-06-28T13:55:47.089Z,22.77
2018-06-28T13:58:21.818Z,25.03
2018-06-28T14:00:56.627Z,31.10
2018-06-28T14:03:31.282Z,24.53
2018-06-28T14:06:06.011Z,27.00
2018-06-28T14:08:40.647Z,22.53
2018-06-28T14:11:15.058Z,32.50
2018-06-28T14:13:50.044Z,21.80
2018-06-28T14:16:25.457Z,20.63
2018-06-28T14:18:59.974Z,22.20
2018-06-28T14:21:35.384Z,31.53
2018-06-28T14:24:09.726Z,26.83
2018-06-28T14:26:44.719Z,19.30
2018-06-28T14:29:19.057Z,24.27
2018-06-28T14:31:54.021Z,27.43
2018-06-28T14:34:28.405Z,34.67
2018-06-28T14:37:03.325Z,24.53
2018-06-28T14:39:37.801Z,19.53
2018-06-28T14:42:12.676Z,18.23
2018-06-28T14:44:47.104Z,23.13
2018-06-28T14:47:21.932Z,22.40
2018-06-28T14:49:56.325Z,25.20
2018-06-28T14:52:31.407Z,24.50
2018-06-28T14:55:05.906Z,21.57
2018-06-28T14:57:41.088Z,20.57
2018-06-28T15:00:15.958Z,15.43
2018-06-28T15:02:50.791Z,18.03
2018-06-28T15:05:25.562Z,23.17
2018-06-28T15:08:00.366Z,20.07
2018-06-28T15:10:35.246Z,16.40
2018-06-28T15:13:10.770Z,18.13
2018-06-28T15:15:44.981Z,13.30
2018-06-28T15:18:19.981Z,15.97
2018-06-28T15:20:55.161Z,18.10
2018-06-28T15:23:31.897Z,15.10
2018-06-28T15:26:06.580Z,17.33
2018-06-28T15:28:41.388Z,16.83
2018-06-28T15:31:16.291Z,19.90
2018-06-28T15:33:50.964Z,12.80
2018-06-28T15:36:25.365Z,15.00
2018-06-28T15:39:00.200Z,13.70
2018-06-28T15:41:34.476Z,12.47
2018-06-28T15:44:09.409Z,14.40
2018-06-28T15:46:43.935Z,17.40
2018-06-28T15:49:18.974Z,15.47
2018-06-28T15:51:53.302Z,14.50
2018-06-28T15:54:30.548Z,15.30
2018-06-28T15:57:05.691Z,14.17
2018-06-28T15:59:40.333Z,17.93
2018-06-28T16:02:14.699Z,14.33
2018-06-28T16:04:49.345Z,15.13
2018-06-28T16:07:24.108Z,14.33
2018-06-28T16:09:58.996Z,17.93
2018-06-28T16:12:33.624Z,13.93
2018-06-28T16:15:07.880Z,13.00
2018-06-28T16:17:42.378Z,12.07
2018-06-28T16:20:16.996Z,10.40
2018-06-28T16:22:51.526Z,11.37
2018-06-28T16:25:26.569Z,13.27
2018-06-28T16:28:00.965Z,11.70
2018-06-28T16:30:35.915Z,11.87
2018-06-28T16:33:10.215Z,12.27
2018-06-28T16:35:45.256Z,16.07
2018-06-28T16:38:19.538Z,9.60
2018-06-28T16:40:54.531Z,11.63
2018-06-28T16:43:29.955Z,15.40
2018-06-28T16:46:04.950Z,10.50
2018-06-28T16:48:39.729Z,11.83
2018-06-28T16:51:14.968Z,12.47
2018-06-28T16:53:49.285Z,11.23
2018-06-28T16:56:23.873Z,9.93
2018-06-28T16:58:58.583Z,12.13
2018-06-28T17:01:33.339Z,9.90
2018-06-28T17:04:07.819Z,11.13
2018-06-28T17:06:42.578Z,12.73
2018-06-28T17:09:17.295Z,15.23
2018-06-28T17:11:52.301Z,14.93
2018-06-28T17:14:26.718Z,11.87
2018-06-28T17:17:01.537Z,11.30
2018-06-28T17:19:36.013Z,14.20
2018-06-28T17:22:10.891Z,12.13
2018-06-28T17:24:45.345Z,18.47
2018-06-28T17:27:19.886Z,15.67
2018-06-28T17:29:54.415Z,20.13
2018-06-28T17:32:29.609Z,10.37
2018-06-28T17:35:04.969Z,12.00
2018-06-28T17:37:39.201Z,11.73
2018-06-28T17:40:13.819Z,10.97
2018-06-28T17:42:48.730Z,12.00
2018-06-28T17:45:23.849Z,12.53
2018-06-28T17:47:59.367Z,11.73
2018-06-28T17:50:34.469Z,11.90
2018-06-28T17:53:09.081Z,14.13
2018-06-28T17:55:43.847Z,9.70
2018-06-28T17:58:18.825Z,11.80
2018-06-28T18:00:53.407Z,12.13
2018-06-28T18:03:27.803Z,12.57
2018-06-28T18:06:02.496Z,11.70
2018-06-28T18:08:37.122Z,13.10
2018-06-28T18:11:11.784Z,13.73
2018-06-28T18:13:46.694Z,11.93
2018-06-28T18:16:22.055Z,14.90
2018-06-28T18:18:57.563Z,10.60
2018-06-28T18:21:32.573Z,12.43
2018-06-28T18:24:06.869Z,14.13
2018-06-28T18:26:41.574Z,15.23
2018-06-28T18:29:16.548Z,12.60
2018-06-28T18:31:50.826Z,14.07
2018-06-28T18:34:25.966Z,13.20
2018-06-28T18:37:01.119Z,13.30
2018-06-28T18:39:35.940Z,12.83
2018-06-28T18:42:11.459Z,12.23
2018-06-28T18:44:46.234Z,13.50
2018-06-28T18:47:20.690Z,13.00
2018-06-28T18:49:55.488Z,15.80
2018-06-28T18:52:29.942Z,12.67
2018-06-28T18:55:05.647Z,16.03
2018-06-28T18:57:40.852Z,11.67
2018-06-28T19:00:15.555Z,16.40
2018-06-28T19:02:50.540Z,12.60
2018-06-28T19:05:25.015Z,11.53
2018-06-28T19:07:59.291Z,16.63
2018-06-28T19:10:39.543Z,12.00
2018-06-28T19:13:15.636Z,14.10
2018-06-28T19:15:55.975Z,12.50
2018-06-28T19:18:30.839Z,10.17
2018-06-28T19:21:11.673Z,12.00
2018-06-28T19:23:48.641Z,11.63
2018-06-28T19:26:23.613Z,16.10
2018-06-28T19:29:02.562Z,14.10
2018-06-28T19:31:42.443Z,16.07
2018-06-28T19:34:17.318Z,12.80
2018-06-28T19:36:52.247Z,10.37
2018-06-28T19:39:32.188Z,23.60
2018-06-28T19:42:12.700Z,15.63
2018-06-28T19:44:47.998Z,11.30
2018-06-28T19:47:22.369Z,14.60
2018-06-28T19:50:02.924Z,16.63
2018-06-28T19:52:43.332Z,19.97
2018-06-28T19:55:17.637Z,15.43
2018-06-28T19:57:52.126Z,17.50
2018-06-28T20:00:32.820Z,13.97
2018-06-28T20:03:13.323Z,13.53
2018-06-28T20:05:48.161Z,26.93
2018-06-28T20:08:23.487Z,20.03
2018-06-28T20:10:58.831Z,15.57
2018-06-28T20:13:39.085Z,17.17
2018-06-28T20:16:19.972Z,17.67
2018-06-28T20:19:00.405Z,16.50
2018-06-28T20:21:35.366Z,19.30
2018-06-28T20:24:12.133Z,18.83
2018-06-28T20:26:52.139Z,21.27
2018-06-28T20:29:32.893Z,22.57
2018-06-28T20:32:13.700Z,19.37
2018-06-28T20:34:48.751Z,31.90
2018-06-28T20:37:23.442Z,19.73
2018-06-28T20:39:58.314Z,14.80
2018-06-28T20:42:32.969Z,18.03
2018-06-28T20:45:07.668Z,17.40
2018-06-28T20:47:43.011Z,18.27
2018-06-28T20:50:18.165Z,15.87
2018-06-28T20:52:53.276Z,18.43
2018-06-28T20:55:28.077Z,16.87
2018-06-28T20:58:03.432Z,19.48
2018-06-28T21:00:38.834Z,22.93
2018-06-28T21:03:14.045Z,20.50
2018-06-28T21:05:48.347Z,22.47
2018-06-28T21:08:23.174Z,16.47
2018-06-28T21:10:57.794Z,20.13
2018-06-28T21:13:32.461Z,21.83
2018-06-28T21:16:07.161Z,24.83
2018-06-28T21:18:41.897Z,17.10
2018-06-28T21:21:16.328Z,21.93
2018-06-28T21:23:51.252Z,21.47
2018-06-28T21:26:25.700Z,26.60
2018-06-28T21:29:00.610Z,21.47
2018-06-28T21:31:35.192Z,24.17
2018-06-28T21:34:09.918Z,26.47
2018-06-28T21:36:44.489Z,31.07
2018-06-28T21:39:19.332Z,23.20
2018-06-28T21:41:53.843Z,24.67
2018-06-28T21:44:28.726Z,21.00
2018-06-28T21:47:03.970Z,21.13
2018-06-28T21:49:38.355Z,24.43
2018-06-28T21:52:12.737Z,26.43
2018-06-28T21:54:47.597Z,24.33
2018-06-28T21:57:22.186Z,27.50
2018-06-28T21:59:57.159Z,23.00
2018-06-28T22:02:31.576Z,27.63
2018-06-28T22:05:06.276Z,27.37
2018-06-28T22:07:41.190Z,31.77
2018-06-28T22:10:15.629Z,25.63
2018-06-28T22:12:50.360Z,35.53
2018-06-28T22:15:26.277Z,28.83
2018-06-28T22:18:03.697Z,25.50
2018-06-28T22:20:39.194Z,26.30
2018-06-28T22:23:13.450Z,29.37
2018-06-28T22:25:48.341Z,23.83
2018-06-28T22:28:23.104Z,37.23
2018-06-28T22:30:58.002Z,29.60
2018-06-28T22:33:32.150Z,32.03
2018-06-28T22:36:07.247Z,31.33
2018-06-28T22:38:41.396Z,27.73
2018-06-28T22:41:16.301Z,26.83
2018-06-28T22:43:50.953Z,28.30
2018-06-28T22:46:25.244Z,34.03
2018-06-28T22:49:00.897Z,30.97
2018-06-28T22:51:35.833Z,43.70
2018-06-28T22:54:10.302Z,30.53
2018-06-28T22:56:45.374Z,42.20
2018-06-28T22:59:19.937Z,42.50
2018-06-28T23:01:54.627Z,37.43
2018-06-28T23:04:29.244Z,36.77
2018-06-28T23:07:04.131Z,43.73
2018-06-28T23:09:38.816Z,36.30
2018-06-28T23:12:13.508Z,31.50
2018-06-28T23:14:48.367Z,30.33
2018-06-28T23:17:23.026Z,30.13
2018-06-28T23:19:58.317Z,33.43
2018-06-28T23:22:45.983Z,31.13
2018-06-28T23:25:20.896Z,33.77
2018-06-28T23:27:56.083Z,31.07
2018-06-28T23:30:30.355Z,38.17
2018-06-28T23:33:05.016Z,35.80
2018-06-28T23:35:39.605Z,34.73
2018-06-28T23:38:13.981Z,37.63
2018-06-28T23:40:48.652Z,35.90
2018-06-28T23:43:23.498Z,38.07
2018-06-28T23:45:57.917Z,37.77
2018-06-28T23:48:32.713Z,42.33
2018-06-28T23:51:07.446Z,35.07
2018-06-28T23:53:42.037Z,32.47
2018-06-28T23:56:16.724Z,41.83
2018-06-28T23:58:51.390Z,32.87
